Terminal Aerodrome Forecast
Issued by NWS

Home | Current Version | Previous Version | Text Only | Print | Product List | Glossary On
Versions: 1 2 3 4 5 6 7 8 9 10 11 12 13 14 15 16 17 18 19
000
FTUS42 KFFC 312336
TAFRYY
TAF
KRYY 312336Z 0100/0124 33006KT P6SM FEW060
     FM010200 01005KT P6SM FEW250
     FM011600 05006KT P6SM FEW040
     FM012200 02008KT P6SM FEW250
      AMD NOT SKED 0104/0112=

USA.gov is the U.S. government's official web portal to all federal, state and local government web resources and services.